Time;durP1;ratioP1;P1;durP2;ratioP2;P2;SDS_P1;SDS_P2;PMS_P1;PMS_P2;Temp;Humidity;BMP_temperature;BMP_pressure;BME280_temperature;BME280_humidity;BME280_pressure;Samples;Min_cycle;Max_cycle;Signal;HPM_P1;HPM_P2
2023/01/10 00:02:21;;;;;;;3.80;0.60;;;5.90;1.00;;;;;;5070458;28;20383;-56
2023/01/10 00:04:47;;;;;;;4.33;0.80;;;6.00;65.90;;;;;;5070623;28;20470;-53
2023/01/10 00:07:12;;;;;;;6.00;0.85;;;7.90;99.90;;;;;;5070641;28;20387;-53
2023/01/10 00:09:38;;;;;;;5.43;1.30;;;7.10;99.90;;;;;;5069288;28;20608;-53
2023/01/10 00:14:48;;;;;;;5.10;1.17;;;5.80;99.90;;;;;;5070349;28;20786;-55
2023/01/10 00:17:13;;;;;;;5.00;1.37;;;5.80;99.90;;;;;;5070918;28;20458;-53
2023/01/10 00:19:39;;;;;;;5.70;1.20;;;7.80;99.90;;;;;;5069837;28;20588;-53
2023/01/10 00:22:06;;;;;;;6.13;1.40;;;5.70;99.90;;;;;;5070926;28;20464;-54
2023/01/10 00:24:31;;;;;;;5.32;1.30;;;5.80;1.00;;;;;;5069470;28;20749;-53
2023/01/10 00:26:58;;;;;;;7.82;1.80;;;6.10;99.90;;;;;;5070390;28;20372;-53
2023/01/10 00:29:29;;;;;;;5.70;2.00;;;7.60;99.90;;;;;;5069473;28;20445;-56
2023/01/10 00:31:56;;;;;;;5.87;1.37;;;5.80;99.90;;;;;;5070190;28;20463;-53
2023/01/10 00:34:22;;;;;;;4.63;1.33;;;6.30;99.90;;;;;;5069641;28;20395;-54
2023/01/10 00:36:48;;;;;;;4.90;1.20;;;5.80;99.90;;;;;;5069935;28;20395;-53
2023/01/10 00:39:14;;;;;;;4.80;1.10;;;6.10;99.90;;;;;;5070381;28;20458;-53
2023/01/10 00:44:25;;;;;;;5.10;1.25;;;6.90;99.90;;;;;;5069193;28;20459;-53
2023/01/10 00:46:52;;;;;;;4.17;1.10;;;5.80;1.00;;;;;;5070395;28;20467;-53
2023/01/10 00:49:18;;;;;;;4.95;1.30;;;5.80;1.00;;;;;;5070352;28;20388;-54
2023/01/10 00:51:44;;;;;;;5.00;1.40;;;5.80;1.00;;;;;;5069003;28;20427;-53
2023/01/10 00:54:10;;;;;;;5.10;1.40;;;5.80;1.00;;;;;;5069692;28;20390;-53
2023/01/10 00:56:36;;;;;;;6.32;1.65;;;5.80;1.00;;;;;;5069712;28;20384;-53
2023/01/10 00:59:02;;;;;;;6.25;1.70;;;5.80;1.00;;;;;;5070115;28;20386;-54
2023/01/10 01:01:28;;;;;;;5.43;1.90;;;5.80;1.00;;;;;;5069485;28;20417;-53
2023/01/10 01:03:54;;;;;;;6.40;1.80;;;7.80;1.00;;;;;;5069713;28;21109;-53
2023/01/10 01:06:19;;;;;;;5.10;1.80;;;5.80;1.00;;;;;;5069803;28;20729;-53
2023/01/10 01:08:45;;;;;;;6.10;1.58;;;5.90;1.00;;;;;;5068679;28;20433;-55
2023/01/10 01:11:10;;;;;;;5.43;1.50;;;7.50;1.00;;;;;;5069633;28;20726;-53
2023/01/10 01:13:36;;;;;;;4.90;1.45;;;5.70;1.00;;;;;;5069372;28;20415;-53
2023/01/10 01:16:02;;;;;;;5.60;1.60;;;6.20;1.00;;;;;;5070234;28;20864;-53
2023/01/10 01:18:28;;;;;;;6.00;2.70;;;5.80;1.00;;;;;;5069222;28;20470;-53
2023/01/10 01:20:55;;;;;;;4.90;1.50;;;7.00;1.00;;;;;;5070093;28;20917;-53
2023/01/10 01:23:22;;;;;;;8.83;1.90;;;5.80;1.00;;;;;;5069860;28;20394;-56
2023/01/10 01:25:52;;;;;;;5.10;1.10;;;5.70;1.00;;;;;;5069724;28;20410;-53
2023/01/10 01:28:18;;;;;;;5.00;1.30;;;5.70;1.00;;;;;;5069599;28;20379;-53
2023/01/10 01:30:44;;;;;;;4.55;1.25;;;5.70;1.00;;;;;;5068884;28;20403;-53
2023/01/10 01:33:09;;;;;;;5.00;1.20;;;7.20;1.00;;;;;;5069840;28;20392;-53
2023/01/10 01:35:35;;;;;;;4.50;1.00;;;7.60;1.00;;;;;;5068426;28;20745;-53
2023/01/10 01:38:01;;;;;;;5.10;1.10;;;7.40;1.00;;;;;;5069296;28;20390;-55
2023/01/10 01:40:26;;;;;;;5.20;1.10;;;5.60;1.00;;;;;;5068881;28;20376;-53
2023/01/10 01:42:54;;;;;;;3.83;1.02;;;5.70;1.00;;;;;;5069997;28;20945;-53
2023/01/10 01:45:23;;;;;;;4.07;0.80;;;7.20;99.90;;;;;;5069741;28;20422;-54
2023/01/10 01:47:56;;;;;;;4.60;0.90;;;5.70;99.90;;;;;;5068949;28;20375;-53
2023/01/10 01:50:41;;;;;;;4.35;1.00;;;6.60;99.90;;;;;;5069119;28;20413;-54
2023/01/10 01:53:30;;;;;;;5.05;1.00;;;6.70;99.90;;;;;;5069228;28;20462;-53
2023/01/10 01:56:02;;;;;;;6.05;0.90;;;7.70;99.90;;;;;;5068878;28;20396;-53
2023/01/10 01:58:37;;;;;;;4.07;0.80;;;5.70;1.00;;;;;;5062140;28;20407;-53
2023/01/10 02:01:03;;;;;;;3.75;0.70;;;5.90;99.90;;;;;;5049774;28;20381;-54
2023/01/10 02:03:29;;;;;;;5.50;1.23;;;5.60;1.00;;;;;;5047173;28;20388;-53
2023/01/10 02:05:55;;;;;;;6.50;1.40;;;5.60;1.00;;;;;;5048574;28;20405;-53
2023/01/10 02:08:21;;;;;;;3.70;0.60;;;6.30;1.00;;;;;;5048935;28;20450;-53
2023/01/10 02:11:02;;;;;;;3.80;0.80;;;5.50;1.00;;;;;;5048689;28;20920;-53
2023/01/10 02:13:29;;;;;;;5.35;0.60;;;6.00;1.00;;;;;;5048499;28;20468;-53
2023/01/10 02:15:54;;;;;;;4.18;0.90;;;5.40;1.00;;;;;;5048882;28;20586;-53
2023/01/10 02:18:22;;;;;;;4.70;1.10;;;5.40;1.00;;;;;;5049272;28;20394;-53
2023/01/10 02:21:17;;;;;;;3.60;0.63;;;6.80;1.00;;;;;;5051765;28;20385;-53
2023/01/10 02:24:17;;;;;;;4.20;1.00;;;5.30;1.00;;;;;;5052151;28;20472;-54
2023/01/10 02:27:01;;;;;;;5.07;1.10;;;5.20;1.00;;;;;;5052574;28;20639;-53
2023/01/10 02:29:27;;;;;;;4.60;1.10;;;5.20;1.00;;;;;;5052368;28;20385;-53
2023/01/10 02:32:22;;;;;;;4.57;1.08;;;6.40;1.00;;;;;;5052321;28;20406;-53
2023/01/10 02:34:50;;;;;;;4.45;1.23;;;5.30;1.00;;;;;;5051940;28;20381;-53
2023/01/10 02:37:33;;;;;;;5.07;1.23;;;5.20;1.00;;;;;;5052074;28;21079;-54
2023/01/10 02:40:08;;;;;;;7.07;1.20;;;5.30;1.00;;;;;;5052982;28;20385;-53
2023/01/10 02:42:59;;;;;;;4.47;1.10;;;5.20;1.00;;;;;;5051665;28;20385;-53
2023/01/10 02:45:30;;;;;;;5.70;1.30;;;6.80;1.00;;;;;;5051937;28;20381;-54
2023/01/10 02:47:57;;;;;;;5.53;0.98;;;5.10;1.00;;;;;;5052261;28;20409;-53
2023/01/10 02:50:54;;;;;;;4.60;1.02;;;5.10;1.00;;;;;;5052256;28;20398;-53
2023/01/10 02:53:36;;;;;;;4.53;0.70;;;5.00;1.00;;;;;;5043616;28;20467;-53
2023/01/10 02:56:23;;;;;;;4.70;0.80;;;6.70;1.00;;;;;;5052230;28;20366;-53
2023/01/10 02:59:17;;;;;;;6.45;0.90;;;4.90;1.00;;;;;;5051708;28;20460;-53
2023/01/10 03:01:58;;;;;;;5.00;1.20;;;4.90;1.00;;;;;;5051228;28;20923;-53
2023/01/10 03:05:07;;;;;;;5.80;1.50;;;4.90;1.00;;;;;;5051780;28;20443;-55
2023/01/10 03:08:00;;;;;;;4.60;0.90;;;5.00;1.00;;;;;;5023522;28;20386;-53
2023/01/10 03:10:47;;;;;;;7.13;1.27;;;5.10;1.00;;;;;;5051594;28;20393;-54
2023/01/10 03:13:16;;;;;;;4.40;1.10;;;5.10;1.00;;;;;;5051273;28;20377;-54
2023/01/10 03:15:44;;;;;;;5.10;1.20;;;6.30;1.00;;;;;;5051238;28;20377;-53
2023/01/10 03:18:15;;;;;;;5.03;1.20;;;5.20;1.00;;;;;;5051812;28;20381;-53
2023/01/10 03:20:43;;;;;;;4.38;0.98;;;6.50;1.00;;;;;;5050869;28;20595;-53
2023/01/10 03:23:12;;;;;;;4.90;1.27;;;6.60;1.00;;;;;;5051775;28;20409;-53
2023/01/10 03:25:39;;;;;;;7.30;1.30;;;5.10;1.00;;;;;;5050909;28;20381;-53
2023/01/10 03:28:10;;;;;;;5.80;1.40;;;5.60;1.00;;;;;;5051375;28;21104;-53
2023/01/10 03:30:40;;;;;;;4.50;1.33;;;5.10;1.00;;;;;;5050997;28;20485;-54
2023/01/10 03:33:06;;;;;;;6.22;1.38;;;5.90;1.00;;;;;;5052050;28;20386;-53
2023/01/10 03:35:47;;;;;;;6.90;1.30;;;5.20;1.00;;;;;;5050406;28;20417;-53
2023/01/10 03:38:23;;;;;;;6.20;1.42;;;5.20;1.00;;;;;;5051351;28;20461;-54
2023/01/10 03:40:58;;;;;;;6.93;1.90;;;5.20;1.00;;;;;;5051681;28;20377;-53
2023/01/10 03:46:56;;;;;;;7.20;2.00;;;5.20;1.00;;;;;;5050712;28;20869;-53
2023/01/10 03:49:24;;;;;;;5.32;1.60;;;5.20;1.00;;;;;;5052350;28;20384;-53
2023/01/10 03:51:51;;;;;;;6.32;1.40;;;5.30;1.00;;;;;;5051208;28;20443;-53
2023/01/10 03:54:17;;;;;;;6.70;1.60;;;6.50;1.00;;;;;;5051376;28;20435;-54
2023/01/10 03:56:44;;;;;;;7.28;1.80;;;5.30;1.00;;;;;;5051179;28;20381;-53
2023/01/10 03:59:10;;;;;;;4.97;1.40;;;5.30;1.00;;;;;;5050784;28;20381;-54
2023/01/10 04:01:36;;;;;;;4.47;1.15;;;5.30;1.00;;;;;;5050482;28;20446;-54
2023/01/10 04:04:01;;;;;;;5.00;1.20;;;7.10;1.00;;;;;;5050902;28;20380;-53
2023/01/10 04:06:27;;;;;;;8.90;1.45;;;5.10;1.00;;;;;;5049919;28;20400;-56
2023/01/10 04:08:52;;;;;;;5.03;1.37;;;5.80;1.00;;;;;;5050960;28;20376;-54
2023/01/10 04:11:18;;;;;;;8.33;1.23;;;5.00;1.00;;;;;;5051264;28;20447;-54
2023/01/10 04:13:43;;;;;;;5.70;1.30;;;6.00;1.00;;;;;;5050138;28;21017;-53
2023/01/10 04:16:10;;;;;;;6.27;1.33;;;4.90;1.00;;;;;;5050772;28;20385;-53
2023/01/10 04:18:35;;;;;;;4.90;1.42;;;6.50;1.00;;;;;;5049638;28;20401;-53
2023/01/10 04:21:01;;;;;;;4.70;1.30;;;5.60;1.00;;;;;;5050776;28;20877;-54
2023/01/10 04:23:26;;;;;;;6.27;1.80;;;5.00;1.00;;;;;;5050236;28;20380;-53
2023/01/10 04:25:52;;;;;;;7.05;1.52;;;5.40;1.00;;;;;;5050239;28;20842;-53
2023/01/10 04:28:17;;;;;;;6.80;1.83;;;4.70;1.00;;;;;;5050934;28;20389;-53
2023/01/10 04:30:43;;;;;;;5.95;1.90;;;4.70;1.00;;;;;;5049481;28;20447;-53
2023/01/10 04:33:10;;;;;;;5.30;1.67;;;4.70;1.00;;;;;;5049962;28;20916;-53
2023/01/10 04:35:36;;;;;;;14.90;1.77;;;4.70;1.00;;;;;;5049289;28;20409;-53
2023/01/10 04:38:01;;;;;;;5.60;1.80;;;5.00;1.00;;;;;;5050590;28;20443;-53
2023/01/10 04:40:27;;;;;;;9.40;2.50;;;5.90;1.00;;;;;;5049639;28;20472;-56
2023/01/10 04:42:52;;;;;;;8.80;2.23;;;4.70;1.00;;;;;;5049386;28;20901;-53
2023/01/10 04:45:20;;;;;;;5.20;1.85;;;4.70;1.00;;;;;;5050075;28;20382;-52
2023/01/10 04:47:50;;;;;;;7.25;1.98;;;6.10;1.00;;;;;;5049447;28;20389;-53
2023/01/10 04:50:16;;;;;;;8.30;2.33;;;4.80;1.00;;;;;;5050087;28;20401;-53
2023/01/10 04:52:42;;;;;;;9.23;2.00;;;4.80;1.00;;;;;;5049873;28;20708;-53
2023/01/10 04:55:08;;;;;;;6.82;2.17;;;5.30;1.00;;;;;;5064655;28;20396;-53
2023/01/10 04:57:34;;;;;;;8.57;2.20;;;4.70;1.00;;;;;;5069088;28;20384;-53
2023/01/10 05:00:00;;;;;;;11.93;2.03;;;4.70;1.00;;;;;;5068636;28;20399;-53
2023/01/10 05:02:25;;;;;;;7.50;1.73;;;4.70;1.00;;;;;;5071797;28;20392;-57
2023/01/10 05:04:51;;;;;;;12.10;2.40;;;4.80;1.00;;;;;;5068316;28;20952;-53
2023/01/10 05:07:16;;;;;;;6.80;1.90;;;4.80;1.00;;;;;;5082531;28;20777;-53
2023/01/10 05:09:42;;;;;;;7.50;2.37;;;4.80;1.00;;;;;;5082663;28;20386;-53
2023/01/10 05:12:08;;;;;;;8.32;1.88;;;4.80;1.00;;;;;;5076889;28;20716;-53
2023/01/10 05:14:33;;;;;;;11.60;2.10;;;6.60;99.90;;;;;;5082630;28;20389;-53
2023/01/10 05:16:59;;;;;;;12.47;2.80;;;5.80;99.90;;;;;;5072881;28;20459;-53
2023/01/10 05:19:25;;;;;;;9.30;2.13;;;5.00;99.90;;;;;;5074098;28;20398;-56
2023/01/10 05:21:51;;;;;;;8.53;2.30;;;5.40;99.90;;;;;;5077669;28;20383;-53
2023/01/10 05:24:17;;;;;;;9.20;2.40;;;5.30;99.90;;;;;;5072039;28;20443;-53
2023/01/10 05:26:42;;;;;;;8.70;2.20;;;6.30;99.90;;;;;;5069144;28;20391;-53
2023/01/10 05:29:13;;;;;;;5.63;1.50;;;5.30;99.90;;;;;;5066086;28;20467;-53
2023/01/10 05:31:39;;;;;;;10.82;1.67;;;5.20;99.90;;;;;;5065893;28;20446;-53
2023/01/10 05:34:04;;;;;;;6.50;1.55;;;5.20;99.90;;;;;;5078885;28;20777;-53
2023/01/10 05:36:30;;;;;;;7.40;1.70;;;5.50;99.90;;;;;;5074026;28;20473;-53
2023/01/10 05:38:56;;;;;;;6.67;1.77;;;5.10;99.90;;;;;;5070496;28;20384;-55
2023/01/10 05:41:22;;;;;;;9.00;1.77;;;6.70;99.90;;;;;;5072438;28;20417;-52
2023/01/10 05:43:48;;;;;;;7.38;1.50;;;6.50;99.90;;;;;;5070065;28;20380;-53
2023/01/10 05:46:14;;;;;;;7.50;1.70;;;5.10;99.90;;;;;;5080270;28;20378;-53
2023/01/10 05:48:40;;;;;;;15.10;2.47;;;5.10;99.90;;;;;;5074506;28;20374;-53
2023/01/10 05:51:06;;;;;;;8.38;1.70;;;5.10;99.90;;;;;;5072850;28;20494;-53
2023/01/10 05:53:32;;;;;;;9.20;2.20;;;5.10;99.90;;;;;;5083572;28;20483;-53
2023/01/10 05:56:00;;;;;;;8.30;1.95;;;5.20;99.90;;;;;;5066968;28;20387;-53
2023/01/10 05:58:26;;;;;;;6.95;1.90;;;5.30;56.10;;;;;;5084084;28;20378;-54
2023/01/10 06:00:53;;;;;;;5.27;1.30;;;5.10;94.30;;;;;;5076913;28;20395;-53
2023/01/10 06:03:19;;;;;;;11.82;1.40;;;7.00;78.70;;;;;;5082386;28;20488;-53
2023/01/10 06:05:45;;;;;;;8.00;1.50;;;6.10;71.50;;;;;;5078142;28;20407;-53
2023/01/10 06:08:10;;;;;;;10.60;1.90;;;6.00;49.50;;;;;;5051569;28;20461;-52
2023/01/10 06:10:36;;;;;;;8.00;1.40;;;5.10;1.00;;;;;;5064224;28;20971;-53
2023/01/10 06:13:03;;;;;;;5.90;1.40;;;5.10;1.00;;;;;;5062702;28;20383;-52
2023/01/10 06:15:29;;;;;;;6.95;1.40;;;6.70;1.00;;;;;;5072124;28;20400;-54
2023/01/10 06:17:55;;;;;;;6.10;1.35;;;5.20;99.90;;;;;;5072694;28;20386;-53
2023/01/10 06:20:20;;;;;;;11.20;1.30;;;6.00;99.90;;;;;;5072110;28;20394;-53
2023/01/10 06:22:46;;;;;;;6.60;1.20;;;5.30;1.00;;;;;;5072023;28;20399;-54
2023/01/10 06:25:14;;;;;;;8.77;1.40;;;5.20;1.00;;;;;;5073133;28;20581;-53
2023/01/10 06:27:41;;;;;;;7.28;1.40;;;5.10;1.00;;;;;;5072246;28;20427;-53
2023/01/10 06:30:08;;;;;;;10.15;1.98;;;6.50;1.00;;;;;;5072471;28;20456;-53
2023/01/10 06:32:35;;;;;;;7.97;1.20;;;5.10;1.00;;;;;;5072513;28;20391;-52
2023/01/10 06:35:01;;;;;;;8.43;1.20;;;5.00;99.90;;;;;;5071848;28;20761;-53
2023/01/10 06:37:27;;;;;;;6.68;1.40;;;5.00;1.00;;;;;;5071848;28;20384;-56
2023/01/10 06:39:52;;;;;;;5.70;1.50;;;5.40;35.00;;;;;;5072097;28;20398;-53
2023/01/10 06:42:18;;;;;;;6.07;1.20;;;5.00;99.90;;;;;;5072594;28;20430;-53
2023/01/10 06:44:44;;;;;;;8.20;1.03;;;5.60;1.00;;;;;;5071783;28;20434;-54
2023/01/10 06:47:10;;;;;;;11.80;1.90;;;5.00;22.20;;;;;;5072651;28;20391;-54
2023/01/10 06:49:35;;;;;;;10.57;1.53;;;5.00;1.00;;;;;;5071031;28;20388;-54
2023/01/10 06:52:01;;;;;;;11.13;1.85;;;5.10;1.00;;;;;;5072672;28;20390;-54
2023/01/10 06:54:26;;;;;;;9.40;1.60;;;5.20;1.00;;;;;;5071770;28;20388;-56
2023/01/10 06:56:52;;;;;;;8.95;1.85;;;5.30;99.90;;;;;;5071876;28;20375;-54
2023/01/10 06:59:18;;;;;;;6.50;1.47;;;6.10;99.90;;;;;;5072562;28;20380;-54
2023/01/10 07:01:43;;;;;;;7.60;1.17;;;5.30;1.00;;;;;;5071736;28;20845;-54
2023/01/10 07:04:09;;;;;;;7.73;1.00;;;5.30;1.00;;;;;;5067473;28;20395;-53
2023/01/10 07:06:38;;;;;;;6.88;1.20;;;5.30;20.70;;;;;;5067700;28;20399;-53
2023/01/10 07:09:05;;;;;;;5.32;1.20;;;7.20;1.00;;;;;;5071907;28;20384;-54
2023/01/10 07:11:31;;;;;;;8.00;1.13;;;5.30;99.90;;;;;;5071048;28;20877;-55
2023/01/10 07:13:57;;;;;;;10.18;1.90;;;5.90;99.90;;;;;;5072118;28;20384;-54
2023/01/10 07:16:23;;;;;;;7.95;1.80;;;5.30;99.90;;;;;;5072429;28;20379;-54
2023/01/10 07:18:48;;;;;;;6.23;1.10;;;5.40;99.90;;;;;;5071053;28;20380;-54
2023/01/10 07:21:15;;;;;;;8.88;1.88;;;5.30;99.90;;;;;;5072112;28;20383;-53
2023/01/10 07:23:42;;;;;;;9.55;1.73;;;5.20;1.00;;;;;;5071299;28;20533;-54
2023/01/10 07:26:10;;;;;;;9.13;1.60;;;5.30;1.00;;;;;;5071941;28;20372;-54
2023/01/10 07:28:36;;;;;;;12.10;2.00;;;5.80;1.00;;;;;;5070972;28;20468;-54
2023/01/10 07:31:04;;;;;;;9.20;1.67;;;5.30;1.00;;;;;;5071425;28;20494;-53
2023/01/10 07:33:30;;;;;;;8.52;1.55;;;5.30;99.90;;;;;;5071343;28;20434;-53
2023/01/10 07:35:56;;;;;;;7.93;2.00;;;5.70;99.90;;;;;;5070629;28;20414;-54
2023/01/10 07:38:22;;;;;;;7.85;1.65;;;5.40;1.00;;;;;;5071664;28;20457;-54
2023/01/10 07:40:48;;;;;;;10.00;1.63;;;5.40;30.70;;;;;;5071074;28;20411;-54
2023/01/10 07:43:14;;;;;;;6.18;1.55;;;6.00;99.90;;;;;;5071877;28;20452;-52
2023/01/10 07:45:39;;;;;;;7.45;1.88;;;6.40;1.00;;;;;;5070587;28;20391;-54
2023/01/10 07:48:05;;;;;;;7.93;1.57;;;5.40;99.90;;;;;;5071703;28;20383;-54
2023/01/10 07:50:33;;;;;;;9.40;1.60;;;5.40;1.00;;;;;;5070088;28;20745;-55
2023/01/10 07:53:00;;;;;;;7.40;1.83;;;5.80;1.00;;;;;;5070685;28;20475;-54
2023/01/10 07:55:27;;;;;;;7.18;1.58;;;5.30;1.00;;;;;;5070844;28;20387;-57
2023/01/10 07:57:53;;;;;;;18.85;2.20;;;5.70;1.00;;;;;;5071299;28;20391;-53
2023/01/10 08:00:19;;;;;;;8.23;1.83;;;5.30;1.00;;;;;;5071025;28;20398;-54
2023/01/10 08:02:45;;;;;;;8.18;1.40;;;5.30;1.00;;;;;;5070234;28;20462;-54
2023/01/10 08:05:12;;;;;;;8.90;1.48;;;5.70;1.00;;;;;;5070952;28;20403;-53
2023/01/10 08:07:37;;;;;;;10.43;2.20;;;5.40;1.00;;;;;;5069111;28;20388;-54
2023/01/10 08:10:07;;;;;;;7.70;2.20;;;6.30;1.00;;;;;;5070849;28;20406;-54
2023/01/10 08:12:33;;;;;;;5.93;1.42;;;5.30;99.90;;;;;;5069729;28;20453;-54
2023/01/10 08:14:58;;;;;;;8.55;1.50;;;7.10;1.00;;;;;;5070373;28;20837;-54
2023/01/10 08:17:24;;;;;;;7.45;1.92;;;6.90;33.40;;;;;;5069766;28;20937;-54
2023/01/10 08:19:50;;;;;;;8.30;2.40;;;5.60;99.90;;;;;;5069767;28;20432;-53
2023/01/10 08:22:16;;;;;;;8.40;1.30;;;6.30;1.00;;;;;;5070168;28;20420;-53
2023/01/10 08:24:41;;;;;;;7.40;1.77;;;5.60;1.00;;;;;;5070127;28;20740;-54
2023/01/10 08:27:07;;;;;;;6.87;1.97;;;5.70;1.00;;;;;;5070427;28;20375;-53
2023/01/10 08:29:33;;;;;;;6.03;1.40;;;6.80;1.00;;;;;;5069527;28;20427;-55
2023/01/10 08:31:58;;;;;;;7.50;1.60;;;7.20;1.00;;;;;;5070485;28;20407;-53
2023/01/10 08:34:24;;;;;;;11.90;2.30;;;7.30;1.00;;;;;;5070079;28;20487;-53
2023/01/10 08:36:51;;;;;;;8.60;1.80;;;7.10;1.00;;;;;;5068781;28;20396;-53
2023/01/10 08:39:17;;;;;;;14.32;1.98;;;7.10;1.00;;;;;;5070324;28;20434;-53
2023/01/10 08:41:43;;;;;;;8.98;1.90;;;5.80;99.90;;;;;;5069218;28;20391;-53
2023/01/10 08:44:11;;;;;;;10.27;2.67;;;7.10;1.00;;;;;;5069654;28;20403;-53
2023/01/10 08:46:37;;;;;;;9.93;1.50;;;5.90;99.90;;;;;;5069060;28;20395;-53
2023/01/10 08:49:02;;;;;;;8.33;2.00;;;6.00;1.00;;;;;;5069856;28;20376;-53
2023/01/10 08:51:28;;;;;;;7.90;2.40;;;6.00;12.60;;;;;;5069496;28;20463;-56
2023/01/10 08:53:54;;;;;;;7.93;2.20;;;6.20;1.00;;;;;;5069530;28;20419;-53
2023/01/10 08:56:20;;;;;;;7.70;2.20;;;6.30;1.00;;;;;;5069623;28;20383;-54
2023/01/10 08:58:45;;;;;;;6.33;1.77;;;7.20;99.90;;;;;;5068995;28;20383;-54
2023/01/10 09:01:13;;;;;;;9.00;2.47;;;6.20;99.90;;;;;;5069652;28;20384;-53
2023/01/10 09:03:39;;;;;;;7.40;2.15;;;6.10;1.00;;;;;;5068964;28;21263;-53
2023/01/10 09:06:05;;;;;;;6.75;2.00;;;6.20;1.00;;;;;;5068932;28;20909;-54
2023/01/10 09:08:31;;;;;;;7.18;2.00;;;6.30;99.90;;;;;;5068623;28;20865;-53
2023/01/10 09:11:00;;;;;;;8.98;2.60;;;6.30;99.90;;;;;;5069512;28;20407;-53
2023/01/10 09:13:27;;;;;;;10.82;2.53;;;6.20;99.90;;;;;;5069658;28;20431;-54
2023/01/10 09:15:55;;;;;;;10.18;2.17;;;7.70;99.90;;;;;;5069186;28;20395;-51
2023/01/10 09:18:21;;;;;;;8.98;2.13;;;6.50;1.00;;;;;;5069115;28;20866;-51
2023/01/10 09:20:48;;;;;;;11.95;2.30;;;6.60;1.00;;;;;;5068682;28;20441;-51
2023/01/10 09:23:17;;;;;;;15.30;2.50;;;6.90;99.90;;;;;;5069494;28;20390;-53
2023/01/10 09:25:44;;;;;;;8.40;2.20;;;7.30;99.90;;;;;;5068720;28;20845;-53
2023/01/10 09:28:10;;;;;;;6.72;1.90;;;6.30;99.90;;;;;;5069630;28;20384;-53
2023/01/10 09:30:36;;;;;;;10.95;2.83;;;7.50;99.90;;;;;;5068573;28;20464;-53
2023/01/10 09:33:02;;;;;;;10.37;2.40;;;7.80;99.90;;;;;;5069511;28;20734;-51
2023/01/10 09:35:29;;;;;;;12.20;2.05;;;6.60;93.60;;;;;;5068891;28;20419;-54
2023/01/10 09:37:57;;;;;;;10.55;1.90;;;6.70;1.00;;;;;;5069251;28;20452;-52
2023/01/10 09:40:53;;;;;;;9.50;1.63;;;6.70;1.00;;;;;;5068990;28;20786;-52
2023/01/10 09:43:40;;;;;;;8.00;1.73;;;6.80;1.00;;;;;;5060933;28;20396;-51
2023/01/10 09:46:38;;;;;;;7.55;1.50;;;6.90;99.90;;;;;;5069038;28;20403;-54
2023/01/10 09:49:32;;;;;;;7.50;1.70;;;7.00;99.90;;;;;;5069429;28;20919;-52
2023/01/10 09:51:58;;;;;;;7.20;1.60;;;7.10;19.20;;;;;;5068871;28;20574;-52
2023/01/10 09:54:38;;;;;;;12.98;1.65;;;7.10;40.00;;;;;;5069207;28;20379;-52
2023/01/10 09:57:04;;;;;;;5.65;1.45;;;7.10;1.00;;;;;;5069287;28;20371;-52
2023/01/10 09:59:39;;;;;;;9.70;1.73;;;8.00;1.00;;;;;;5068777;28;20380;-55
2023/01/10 10:02:35;;;;;;;9.00;1.80;;;7.30;1.00;;;;;;5068790;28;20391;-52
2023/01/10 10:05:10;;;;;;;5.72;1.33;;;7.30;1.00;;;;;;5068586;28;20442;-52
2023/01/10 10:07:36;;;;;;;8.90;1.95;;;7.20;1.00;;;;;;5050304;28;20911;-52
2023/01/10 10:10:05;;;;;;;7.03;1.10;;;7.20;1.00;;;;;;5050849;28;20403;-52
2023/01/10 10:12:59;;;;;;;6.20;1.27;;;7.10;1.00;;;;;;5068548;28;20390;-54
2023/01/10 10:15:47;;;;;;;8.90;1.30;;;7.10;1.00;;;;;;5049067;28;20396;-52
2023/01/10 10:18:31;;;;;;;6.75;1.85;;;7.10;1.00;;;;;;5048842;28;20397;-52
2023/01/10 10:21:21;;;;;;;7.50;1.60;;;6.90;1.00;;;;;;5048741;28;20385;-51
2023/01/10 10:24:22;;;;;;;5.93;1.60;;;6.90;1.00;;;;;;5048066;28;20378;-54
2023/01/10 10:26:54;;;;;;;7.47;1.60;;;7.10;1.00;;;;;;5048047;28;20377;-52
2023/01/10 10:29:53;;;;;;;7.50;2.75;;;7.10;1.00;;;;;;5049153;28;20381;-52
2023/01/10 10:32:46;;;;;;;9.10;1.50;;;7.20;1.00;;;;;;5048779;28;20385;-52
2023/01/10 10:35:17;;;;;;;14.23;4.47;;;7.00;1.00;;;;;;5048231;28;20736;-52
2023/01/10 10:37:50;;;;;;;8.73;2.80;;;7.00;1.00;;;;;;5047979;28;20389;-51
2023/01/10 10:40:24;;;;;;;8.10;2.90;;;8.40;1.00;;;;;;5049051;28;20385;-52
2023/01/10 10:42:52;;;;;;;9.40;2.40;;;7.10;1.00;;;;;;5051477;28;20858;-52
2023/01/10 10:45:43;;;;;;;7.90;3.08;;;7.30;1.00;;;;;;5052087;28;20409;-52
2023/01/10 10:48:14;;;;;;;10.57;2.78;;;7.30;1.00;;;;;;5037592;28;20908;-51
2023/01/10 10:51:08;;;;;;;11.67;1.93;;;7.40;1.00;;;;;;5051220;28;20416;-52
2023/01/10 10:53:34;;;;;;;5.80;0.80;;;7.40;1.00;;;;;;5048022;28;20634;-52
2023/01/10 10:56:03;;;;;;;5.60;1.38;;;7.20;99.90;;;;;;5051916;28;20385;-52
2023/01/10 10:58:30;;;;;;;6.80;1.40;;;8.60;1.00;;;;;;5051841;28;20382;-53
2023/01/10 11:00:57;;;;;;;6.40;1.73;;;7.20;1.00;;;;;;5051249;28;20484;-52
2023/01/10 11:03:48;;;;;;;5.97;0.95;;;7.30;99.90;;;;;;5051511;28;20443;-52
2023/01/10 11:06:16;;;;;;;7.25;1.35;;;7.50;99.90;;;;;;5051544;28;20421;-52
2023/01/10 11:08:44;;;;;;;9.02;1.15;;;8.30;99.90;;;;;;5050263;28;20483;-52
2023/01/10 11:11:36;;;;;;;6.70;1.60;;;8.30;99.90;;;;;;5051373;28;20417;-52
2023/01/10 11:14:04;;;;;;;6.53;1.40;;;8.00;99.90;;;;;;5047945;28;20395;-52
2023/01/10 11:16:35;;;;;;;7.50;1.25;;;7.50;99.90;;;;;;5071233;28;20710;-55
2023/01/10 11:19:19;;;;;;;6.47;1.33;;;7.40;1.00;;;;;;5071532;28;20391;-52
2023/01/10 11:21:57;;;;;;;5.80;1.10;;;7.30;99.90;;;;;;5070777;28;20930;-52
2023/01/10 11:24:33;;;;;;;6.78;1.00;;;7.60;1.00;;;;;;5071532;28;20368;-52
2023/01/10 11:27:03;;;;;;;5.70;0.80;;;7.70;1.00;;;;;;5071454;28;20387;-52
2023/01/10 11:29:38;;;;;;;8.20;0.90;;;7.40;99.90;;;;;;5071844;28;20383;-51
2023/01/10 11:32:31;;;;;;;5.70;1.20;;;7.20;99.90;;;;;;5071499;28;20407;-52
2023/01/10 11:35:03;;;;;;;7.60;1.30;;;7.00;99.90;;;;;;5070939;28;20871;-52
2023/01/10 11:37:31;;;;;;;8.43;1.40;;;7.10;99.90;;;;;;5071327;28;20502;-52
2023/01/10 11:40:18;;;;;;;9.25;1.10;;;7.40;1.00;;;;;;5071124;28;20376;-52
2023/01/10 11:42:44;;;;;;;6.13;1.10;;;8.40;99.90;;;;;;5070489;28;20407;-52
2023/01/10 11:45:16;;;;;;;4.82;1.02;;;7.50;99.90;;;;;;5071111;28;20423;-53
2023/01/10 11:47:55;;;;;;;5.88;1.08;;;8.30;99.90;;;;;;5070495;28;20372;-52
2023/01/10 11:50:26;;;;;;;7.60;1.10;;;8.00;99.90;;;;;;5070819;28;20399;-52
2023/01/10 11:52:53;;;;;;;5.20;1.00;;;7.50;99.90;;;;;;5051110;28;21015;-52
2023/01/10 11:55:28;;;;;;;5.13;0.80;;;7.60;99.90;;;;;;5070993;28;20845;-52
2023/01/10 11:58:06;;;;;;;9.45;1.20;;;7.50;99.90;;;;;;5070280;28;20380;-52
2023/01/10 12:00:35;;;;;;;10.02;1.38;;;7.70;99.90;;;;;;5070703;28;20383;-54
2023/01/10 12:03:01;;;;;;;6.65;1.20;;;8.00;99.90;;;;;;5070487;28;20387;-52
2023/01/10 12:05:27;;;;;;;5.95;0.80;;;9.00;99.90;;;;;;5070897;28;20380;-52
2023/01/10 12:07:58;;;;;;;8.73;1.50;;;8.70;99.90;;;;;;5070635;28;20466;-53
2023/01/10 12:10:26;;;;;;;9.23;1.30;;;9.00;99.90;;;;;;5070551;28;20553;-54
2023/01/10 12:12:58;;;;;;;7.70;1.30;;;9.40;83.90;;;;;;5069826;28;20581;-54
2023/01/10 12:15:29;;;;;;;8.90;1.20;;;9.40;1.00;;;;;;5070609;28;20422;-54
2023/01/10 12:17:58;;;;;;;7.65;1.30;;;9.40;1.00;;;;;;5069961;28;20935;-54
2023/01/10 12:20:27;;;;;;;7.00;1.00;;;9.50;1.00;;;;;;5070492;28;20384;-54
2023/01/10 12:23:01;;;;;;;8.88;1.30;;;9.40;1.00;;;;;;5069417;28;20375;-54
2023/01/10 12:25:36;;;;;;;7.80;1.05;;;9.30;1.00;;;;;;5070380;28;20844;-54
2023/01/10 12:28:01;;;;;;;7.93;1.30;;;9.50;1.00;;;;;;5070129;28;20384;-54
2023/01/10 12:30:42;;;;;;;7.03;1.73;;;9.30;1.00;;;;;;5070150;28;20403;-53
2023/01/10 12:33:20;;;;;;;8.90;1.17;;;9.30;1.00;;;;;;5070282;28;20496;-53
2023/01/10 12:36:02;;;;;;;6.37;1.40;;;9.00;1.00;;;;;;5068654;28;20412;-53
2023/01/10 12:44:19;;;;;;;9.40;1.00;;;8.80;1.00;;;;;;5069853;28;20463;-53
2023/01/10 12:46:54;;;;;;;10.43;1.27;;;8.90;1.00;;;;;;5069124;28;20394;-53
2023/01/10 12:49:29;;;;;;;7.27;1.03;;;8.90;1.00;;;;;;5070037;28;20418;-53
2023/01/10 12:51:59;;;;;;;7.13;1.20;;;8.90;1.00;;;;;;5069253;28;21192;-54
2023/01/10 12:54:28;;;;;;;10.77;1.00;;;9.30;1.00;;;;;;5069877;28;20368;-54
2023/01/10 12:56:57;;;;;;;6.57;1.10;;;8.80;1.00;;;;;;5051178;28;20718;-53
2023/01/10 12:59:36;;;;;;;7.13;1.10;;;8.80;1.00;;;;;;5069693;28;20455;-54
2023/01/10 13:02:14;;;;;;;7.43;1.10;;;9.70;1.00;;;;;;5069695;28;20390;-54
2023/01/10 13:04:42;;;;;;;8.55;1.08;;;8.80;1.00;;;;;;5068272;28;20392;-53
2023/01/10 13:07:10;;;;;;;7.00;0.93;;;8.80;1.00;;;;;;5069630;28;20380;-53
2023/01/10 13:09:37;;;;;;;8.75;0.95;;;8.70;1.00;;;;;;5069209;28;20911;-53
2023/01/10 13:12:16;;;;;;;5.40;0.80;;;8.80;1.00;;;;;;5069479;28;20399;-55
2023/01/10 13:15:04;;;;;;;6.80;0.90;;;8.60;1.00;;;;;;5068762;28;20388;-53
2023/01/10 13:17:32;;;;;;;4.80;1.00;;;9.30;1.00;;;;;;5070047;28;20379;-51
2023/01/10 13:20:16;;;;;;;7.10;0.80;;;8.40;1.00;;;;;;5068918;28;20388;-51
2023/01/10 13:22:51;;;;;;;5.43;1.10;;;8.40;1.00;;;;;;5068570;28;20390;-51
2023/01/10 13:25:33;;;;;;;6.30;0.60;;;8.40;1.00;;;;;;5069541;28;20437;-51
2023/01/10 13:28:22;;;;;;;6.00;1.00;;;8.50;1.00;;;;;;5069031;28;20380;-51
2023/01/10 13:30:52;;;;;;;5.50;0.93;;;8.00;1.00;;;;;;5060733;28;20549;-51
2023/01/10 13:33:21;;;;;;;4.80;0.80;;;7.90;1.00;;;;;;5064188;28;20388;-51
2023/01/10 13:35:48;;;;;;;7.60;0.52;;;8.00;1.00;;;;;;5050833;28;20417;-51